createdAt,value
2023-05-19T00:02:00.246Z,9.36
2023-05-19T00:04:27.816Z,9.46
2023-05-19T00:06:54.417Z,9.41
2023-05-19T00:09:21.127Z,9.32
2023-05-19T00:11:47.830Z,9.38
2023-05-19T00:14:14.503Z,9.43
2023-05-19T00:16:42.247Z,9.08
2023-05-19T00:19:10.050Z,9.22
2023-05-19T00:21:40.548Z,9.27
2023-05-19T00:24:07.567Z,9.06
2023-05-19T00:26:34.102Z,9.15
2023-05-19T00:29:00.879Z,9.27
2023-05-19T00:31:27.440Z,9.27
2023-05-19T00:33:53.884Z,9.19
2023-05-19T00:36:20.417Z,9.16
2023-05-19T00:38:46.864Z,9.22
2023-05-19T00:41:13.386Z,9.03
2023-05-19T00:43:39.931Z,9.21
2023-05-19T00:46:07.424Z,9.17
2023-05-19T00:48:33.988Z,9.00
2023-05-19T00:51:04.844Z,9.01
2023-05-19T00:53:35.075Z,8.98
2023-05-19T00:56:02.949Z,8.84
2023-05-19T00:58:31.047Z,8.94
2023-05-19T01:01:04.235Z,8.99
2023-05-19T01:03:32.427Z,8.87
2023-05-19T01:06:01.701Z,9.01
2023-05-19T01:08:31.598Z,8.91
2023-05-19T01:10:58.232Z,8.91
2023-05-19T01:13:25.134Z,9.04
2023-05-19T01:15:57.904Z,8.70
2023-05-19T01:18:32.585Z,8.84
2023-05-19T01:21:17.011Z,8.84
2023-05-19T01:24:07.108Z,8.87
2023-05-19T01:27:03.892Z,8.85
2023-05-19T01:29:42.655Z,8.87
2023-05-19T01:32:11.920Z,8.88
2023-05-19T01:34:43.196Z,8.88
2023-05-19T01:37:10.113Z,8.84
2023-05-19T01:39:37.344Z,8.76
2023-05-19T01:42:04.614Z,8.81
2023-05-19T01:44:32.903Z,8.82
2023-05-19T01:46:59.985Z,8.73
2023-05-19T01:49:26.440Z,8.85
2023-05-19T01:51:53.295Z,8.87
2023-05-19T01:54:19.767Z,8.88
2023-05-19T01:57:04.077Z,8.90
2023-05-19T01:59:42.014Z,8.95
2023-05-19T02:02:26.387Z,8.92
2023-05-19T02:04:59.821Z,8.88
2023-05-19T02:07:59.772Z,9.00
2023-05-19T02:10:33.357Z,8.82
2023-05-19T02:13:04.633Z,8.92
2023-05-19T02:15:42.186Z,8.85
2023-05-19T02:18:11.703Z,8.70
2023-05-19T02:20:39.660Z,8.81
2023-05-19T02:23:06.450Z,8.76
2023-05-19T02:25:33.031Z,8.68
2023-05-19T02:27:59.907Z,8.90
2023-05-19T02:30:26.346Z,8.65
2023-05-19T02:32:54.295Z,8.79
2023-05-19T02:35:21.434Z,8.79
2023-05-19T02:37:47.971Z,8.68
2023-05-19T02:40:14.410Z,8.64
2023-05-19T02:42:40.871Z,8.54
2023-05-19T02:45:07.796Z,8.60
2023-05-19T02:47:36.738Z,8.65
2023-05-19T02:50:04.329Z,8.64
2023-05-19T02:52:30.821Z,8.61
2023-05-19T02:54:57.255Z,8.54
2023-05-19T02:57:24.155Z,8.50
2023-05-19T02:59:51.068Z,8.44
2023-05-19T03:02:17.898Z,8.35
2023-05-19T03:04:45.587Z,8.43
2023-05-19T03:07:14.163Z,8.52
2023-05-19T03:09:40.825Z,8.46
2023-05-19T03:12:07.751Z,8.41
2023-05-19T03:14:34.855Z,8.47
2023-05-19T03:17:01.756Z,8.34
2023-05-19T03:19:28.281Z,8.22
2023-05-19T03:21:56.383Z,8.38
2023-05-19T03:24:22.880Z,8.22
2023-05-19T03:26:49.307Z,8.44
2023-05-19T03:29:16.431Z,8.43
2023-05-19T03:31:43.074Z,8.39
2023-05-19T03:34:09.555Z,8.35
2023-05-19T03:36:39.801Z,8.39
2023-05-19T03:39:06.887Z,8.31
2023-05-19T03:41:33.527Z,8.28
2023-05-19T03:43:59.973Z,8.37
2023-05-19T03:46:26.526Z,8.31
2023-05-19T03:48:53.117Z,8.40
2023-05-19T03:51:19.599Z,8.25
2023-05-19T03:53:46.058Z,8.26
2023-05-19T03:56:13.850Z,8.34
2023-05-19T03:58:44.870Z,8.30
2023-05-19T04:01:11.515Z,8.22
2023-05-19T04:03:37.982Z,8.37
2023-05-19T04:06:04.633Z,8.40
2023-05-19T04:08:31.257Z,8.40
2023-05-19T04:10:57.693Z,8.44
2023-05-19T04:13:24.142Z,8.55
2023-05-19T04:15:50.673Z,8.59
2023-05-19T04:18:17.144Z,8.52
2023-05-19T04:20:43.575Z,8.67
2023-05-19T04:23:10.489Z,8.64
2023-05-19T04:25:37.332Z,8.67
2023-05-19T04:28:03.774Z,8.73
2023-05-19T04:30:31.090Z,8.68
2023-05-19T04:32:58.225Z,8.80
2023-05-19T04:35:24.982Z,8.75
2023-05-19T04:37:54.205Z,8.88
2023-05-19T04:40:23.582Z,8.85
2023-05-19T04:42:52.235Z,8.84
2023-05-19T04:45:18.779Z,8.97
2023-05-19T04:47:46.927Z,9.07
2023-05-19T04:50:14.236Z,9.19
2023-05-19T04:52:42.426Z,9.03
2023-05-19T04:55:11.218Z,9.12
2023-05-19T04:57:38.789Z,9.27
2023-05-19T05:00:09.872Z,9.47
2023-05-19T05:02:37.065Z,9.51
2023-05-19T05:05:04.301Z,9.54
2023-05-19T05:07:32.320Z,9.45
2023-05-19T05:09:59.087Z,9.63
2023-05-19T05:12:25.803Z,9.65
2023-05-19T05:14:52.467Z,9.62
2023-05-19T05:17:19.178Z,9.96
2023-05-19T05:19:45.908Z,10.02
2023-05-19T05:22:12.793Z,10.06
2023-05-19T05:24:39.496Z,10.18
2023-05-19T05:27:08.086Z,10.36
2023-05-19T05:29:34.557Z,10.37
2023-05-19T05:32:01.038Z,10.71
2023-05-19T05:34:27.646Z,11.11
2023-05-19T05:36:55.013Z,12.03
2023-05-19T05:39:21.457Z,12.84
2023-05-19T05:41:47.983Z,13.35
2023-05-19T05:44:14.452Z,13.82
2023-05-19T05:46:41.212Z,14.45
2023-05-19T05:49:08.378Z,14.33
2023-05-19T05:51:35.844Z,14.67
2023-05-19T05:54:03.052Z,14.94
2023-05-19T05:56:29.789Z,14.99
2023-05-19T05:58:56.796Z,15.19
2023-05-19T06:01:24.002Z,15.75
2023-05-19T06:03:50.954Z,15.70
2023-05-19T06:06:17.567Z,15.89
2023-05-19T06:08:44.047Z,16.07
2023-05-19T06:11:10.640Z,16.13
2023-05-19T06:13:38.127Z,16.08
2023-05-19T06:16:05.962Z,15.95
2023-05-19T06:18:32.475Z,15.95
2023-05-19T06:20:59.044Z,16.13
2023-05-19T06:23:26.807Z,16.90
2023-05-19T06:25:53.301Z,16.77
2023-05-19T06:28:19.800Z,17.08
2023-05-19T06:30:46.334Z,17.24
2023-05-19T06:33:12.725Z,16.46
2023-05-19T06:35:39.226Z,16.79
2023-05-19T06:38:05.686Z,17.20
2023-05-19T06:40:32.339Z,17.11
2023-05-19T06:42:59.016Z,17.31
2023-05-19T06:45:25.510Z,17.79
2023-05-19T06:47:52.095Z,17.19
2023-05-19T06:50:18.594Z,17.76
2023-05-19T06:52:46.944Z,18.24
2023-05-19T06:55:13.363Z,18.19
2023-05-19T06:57:39.910Z,18.68
2023-05-19T07:00:10.014Z,18.80
2023-05-19T07:02:36.542Z,18.28
2023-05-19T07:05:03.209Z,17.84
2023-05-19T07:07:29.670Z,17.74
2023-05-19T07:09:56.453Z,17.53
2023-05-19T07:12:22.936Z,18.37
2023-05-19T07:14:49.357Z,18.32
2023-05-19T07:17:15.901Z,18.58
2023-05-19T07:19:42.334Z,18.68
2023-05-19T07:22:08.810Z,18.66
2023-05-19T07:24:35.439Z,18.56
2023-05-19T07:27:02.064Z,18.50
2023-05-19T07:29:28.513Z,18.58
2023-05-19T07:31:57.872Z,18.38
2023-05-19T07:34:25.042Z,18.10
2023-05-19T07:36:52.089Z,17.76
2023-05-19T07:39:19.031Z,18.27
2023-05-19T07:41:52.464Z,18.28
2023-05-19T07:44:19.112Z,18.73
2023-05-19T07:46:45.565Z,19.38
2023-05-19T07:49:11.986Z,19.25
2023-05-19T07:51:38.414Z,19.37
2023-05-19T07:54:04.872Z,19.54
2023-05-19T07:56:31.378Z,19.82
2023-05-19T07:58:57.793Z,19.79
2023-05-19T08:01:24.226Z,19.49
2023-05-19T08:03:50.942Z,19.87
2023-05-19T08:06:17.487Z,20.12
2023-05-19T08:08:44.193Z,20.08
2023-05-19T08:11:10.652Z,19.67
2023-05-19T08:13:37.105Z,19.48
2023-05-19T08:16:03.889Z,19.20
2023-05-19T08:18:30.506Z,19.77
2023-05-19T08:20:57.087Z,18.91
2023-05-19T08:23:23.603Z,19.34
2023-05-19T08:25:50.037Z,19.31
2023-05-19T08:28:16.596Z,19.83
2023-05-19T08:30:43.029Z,20.06
2023-05-19T08:33:09.586Z,20.23
2023-05-19T08:35:36.135Z,20.31
2023-05-19T08:38:02.603Z,19.65
2023-05-19T08:40:31.636Z,19.95
2023-05-19T08:42:58.364Z,20.33
2023-05-19T08:45:24.965Z,20.23
2023-05-19T08:47:52.100Z,20.72
2023-05-19T08:50:27.539Z,20.63
2023-05-19T08:53:02.416Z,21.19
2023-05-19T08:55:36.678Z,20.58
2023-05-19T08:58:04.749Z,21.27
2023-05-19T09:00:32.671Z,20.63
2023-05-19T09:03:16.991Z,21.65
2023-05-19T09:05:46.514Z,21.41
2023-05-19T09:08:13.351Z,21.74
2023-05-19T09:10:39.799Z,21.35
2023-05-19T09:13:06.491Z,21.22
2023-05-19T09:15:34.726Z,20.11
2023-05-19T09:18:15.157Z,21.14
2023-05-19T09:20:44.709Z,21.72
2023-05-19T09:23:16.279Z,21.24
2023-05-19T09:25:53.214Z,20.48
2023-05-19T09:28:40.335Z,21.92
2023-05-19T09:31:09.065Z,21.84
2023-05-19T09:33:37.492Z,22.18
2023-05-19T09:36:08.410Z,22.82
2023-05-19T09:38:36.184Z,21.92
2023-05-19T09:41:03.454Z,22.75
2023-05-19T09:43:34.472Z,22.44
2023-05-19T09:46:07.859Z,21.35
2023-05-19T09:48:36.445Z,22.60
2023-05-19T09:51:05.201Z,22.28
2023-05-19T09:53:32.486Z,21.85
2023-05-19T09:56:01.611Z,22.27
2023-05-19T09:58:34.620Z,23.12
2023-05-19T10:01:01.614Z,22.73
2023-05-19T10:03:28.340Z,22.90
2023-05-19T10:05:54.976Z,23.67
2023-05-19T10:08:26.388Z,22.70
2023-05-19T10:10:52.963Z,22.44
2023-05-19T10:13:19.683Z,23.44
2023-05-19T10:15:58.140Z,22.88
2023-05-19T10:18:26.890Z,23.33
2023-05-19T10:20:54.225Z,24.12
2023-05-19T10:23:21.052Z,22.80
2023-05-19T10:25:49.209Z,24.13
2023-05-19T10:28:18.494Z,24.26
2023-05-19T10:30:47.863Z,23.49
2023-05-19T10:33:18.165Z,23.94
2023-05-19T10:35:50.593Z,23.56
2023-05-19T10:38:48.289Z,23.65
2023-05-19T10:44:11.844Z,23.37
2023-05-19T10:46:40.710Z,24.08
2023-05-19T10:49:10.146Z,23.90
2023-05-19T10:51:37.182Z,23.69
2023-05-19T10:54:10.474Z,23.94
2023-05-19T10:56:42.327Z,23.72
2023-05-19T10:59:33.131Z,23.35
2023-05-19T11:02:07.521Z,23.42
2023-05-19T11:04:41.061Z,23.83
2023-05-19T11:07:10.407Z,23.99
2023-05-19T11:09:43.112Z,23.80
2023-05-19T11:12:10.942Z,23.18
2023-05-19T11:14:37.514Z,22.57
2023-05-19T11:17:05.551Z,22.41
2023-05-19T11:19:34.687Z,22.75
2023-05-19T11:22:14.187Z,24.67
2023-05-19T11:24:45.775Z,25.15
2023-05-19T11:27:37.374Z,25.09
2023-05-19T11:30:15.175Z,24.61
2023-05-19T11:32:42.900Z,24.87
2023-05-19T11:35:11.002Z,24.72
2023-05-19T11:37:37.708Z,24.59
2023-05-19T11:40:07.102Z,23.28
2023-05-19T11:42:36.992Z,23.28
2023-05-19T11:45:04.884Z,23.09
2023-05-19T11:47:42.060Z,21.78
2023-05-19T11:50:12.709Z,22.96
2023-05-19T11:52:44.480Z,24.24
2023-05-19T11:55:15.837Z,25.24
2023-05-19T11:58:02.862Z,23.43
2023-05-19T12:00:37.098Z,23.47
2023-05-19T12:03:03.970Z,23.79
2023-05-19T12:05:34.485Z,23.65
2023-05-19T12:08:02.877Z,23.45
2023-05-19T12:10:31.352Z,24.20
2023-05-19T12:12:59.248Z,24.80
2023-05-19T12:15:25.813Z,25.01
2023-05-19T12:17:58.644Z,24.25
2023-05-19T12:20:26.701Z,23.44
2023-05-19T12:22:55.525Z,22.65
2023-05-19T12:25:23.093Z,22.79
2023-05-19T12:27:50.039Z,23.90
2023-05-19T12:30:16.780Z,23.80
2023-05-19T12:32:44.005Z,24.38
2023-05-19T12:35:10.951Z,24.14
2023-05-19T12:37:41.707Z,23.74
2023-05-19T12:40:09.436Z,23.34
2023-05-19T12:42:35.953Z,22.92
2023-05-19T12:45:04.579Z,23.57
2023-05-19T12:47:33.804Z,24.31
2023-05-19T12:50:00.332Z,24.56
2023-05-19T12:52:28.953Z,24.98
2023-05-19T12:55:06.958Z,25.43
2023-05-19T12:57:38.065Z,25.05
2023-05-19T13:00:07.110Z,24.37
2023-05-19T13:02:36.133Z,24.00
2023-05-19T13:05:04.817Z,24.25
2023-05-19T13:07:31.304Z,25.16
2023-05-19T13:09:57.733Z,24.49
2023-05-19T13:12:24.644Z,23.70
2023-05-19T13:14:52.884Z,22.84
2023-05-19T13:17:20.619Z,23.08
2023-05-19T13:19:47.073Z,24.70
2023-05-19T13:22:13.566Z,24.58
2023-05-19T13:24:40.796Z,24.48
2023-05-19T13:27:07.224Z,24.96
2023-05-19T13:29:33.691Z,23.82
2023-05-19T13:32:01.378Z,24.85
2023-05-19T13:34:28.107Z,24.67
2023-05-19T13:36:54.651Z,23.63
2023-05-19T13:39:21.166Z,25.11
2023-05-19T13:41:47.588Z,25.20
2023-05-19T13:44:14.086Z,25.84
2023-05-19T13:46:45.152Z,25.22
2023-05-19T13:49:12.375Z,25.04
2023-05-19T13:51:42.305Z,24.88
2023-05-19T13:54:08.819Z,24.80
2023-05-19T13:56:35.462Z,24.77
2023-05-19T13:59:03.895Z,23.91
2023-05-19T14:01:30.520Z,23.97
2023-05-19T14:03:57.386Z,23.05
2023-05-19T14:06:24.034Z,22.88
2023-05-19T14:08:50.463Z,23.02
2023-05-19T14:11:21.487Z,23.65
2023-05-19T14:13:53.051Z,23.93
2023-05-19T14:16:21.888Z,24.56
2023-05-19T14:18:48.990Z,24.35
2023-05-19T14:21:15.779Z,23.75
2023-05-19T14:23:42.301Z,22.93
2023-05-19T14:26:08.833Z,22.12
2023-05-19T14:28:35.336Z,22.27
2023-05-19T14:31:01.765Z,23.16
2023-05-19T14:33:29.714Z,24.03
2023-05-19T14:36:00.007Z,24.33
2023-05-19T14:38:27.702Z,23.47
2023-05-19T14:40:55.458Z,22.74
2023-05-19T14:43:22.073Z,22.81
2023-05-19T14:45:48.888Z,21.78
2023-05-19T14:48:15.802Z,21.66
2023-05-19T14:50:42.301Z,22.27
2023-05-19T14:53:08.727Z,23.12
2023-05-19T14:55:35.327Z,22.99
2023-05-19T14:58:01.979Z,24.15
2023-05-19T15:00:29.880Z,23.35
2023-05-19T15:02:56.524Z,22.90
2023-05-19T15:05:24.295Z,22.74
2023-05-19T15:07:50.859Z,22.62
2023-05-19T15:10:20.405Z,22.74
2023-05-19T15:12:46.930Z,23.74
2023-05-19T15:15:14.138Z,24.04
2023-05-19T15:17:40.826Z,24.41
2023-05-19T15:20:07.690Z,23.32
2023-05-19T15:22:34.269Z,23.31
2023-05-19T15:25:00.972Z,22.61
2023-05-19T15:27:27.606Z,22.61
2023-05-19T15:29:54.048Z,21.49
2023-05-19T15:32:20.662Z,21.56
2023-05-19T15:34:47.238Z,22.57
2023-05-19T15:37:13.690Z,23.11
2023-05-19T15:39:40.357Z,23.12
2023-05-19T15:42:06.805Z,23.43
2023-05-19T15:44:33.258Z,23.28
2023-05-19T15:46:59.889Z,23.67
2023-05-19T15:49:26.325Z,23.70
2023-05-19T15:51:52.752Z,23.13
2023-05-19T15:54:19.180Z,23.94
2023-05-19T15:56:45.705Z,23.62
2023-05-19T15:59:12.133Z,22.50
2023-05-19T16:01:38.708Z,22.23
2023-05-19T16:04:05.468Z,21.89
2023-05-19T16:06:32.209Z,21.42
2023-05-19T16:08:58.619Z,21.32
2023-05-19T16:11:25.075Z,21.13
2023-05-19T16:13:51.543Z,21.25
2023-05-19T16:16:18.791Z,21.61
2023-05-19T16:18:45.501Z,22.32
2023-05-19T16:21:12.004Z,22.55
2023-05-19T16:23:38.537Z,22.88
2023-05-19T16:26:05.060Z,23.07
2023-05-19T16:28:32.407Z,23.17
2023-05-19T16:31:00.115Z,23.07
2023-05-19T16:33:27.834Z,22.43
2023-05-19T16:35:54.454Z,21.91
2023-05-19T16:38:21.035Z,21.47
2023-05-19T16:40:47.445Z,21.27
2023-05-19T16:43:13.875Z,20.76
2023-05-19T16:45:40.336Z,21.08
2023-05-19T16:48:06.849Z,21.13
2023-05-19T16:50:33.370Z,21.09
2023-05-19T16:52:59.886Z,21.33
2023-05-19T16:55:26.792Z,21.71
2023-05-19T16:57:53.302Z,21.63
2023-05-19T17:00:19.908Z,21.80
2023-05-19T17:02:46.407Z,21.64
2023-05-19T17:05:12.910Z,21.52
2023-05-19T17:07:39.328Z,21.73
2023-05-19T17:10:06.121Z,21.44
2023-05-19T17:12:32.614Z,21.79
2023-05-19T17:14:59.045Z,21.40
2023-05-19T17:17:25.796Z,20.67
2023-05-19T17:19:52.292Z,20.87
2023-05-19T17:22:19.132Z,20.31
2023-05-19T17:24:45.798Z,20.58
2023-05-19T17:27:12.218Z,20.23
2023-05-19T17:29:38.661Z,20.24
2023-05-19T17:32:05.392Z,20.00
2023-05-19T17:34:32.157Z,19.94
2023-05-19T17:36:58.587Z,19.93
2023-05-19T17:39:25.055Z,20.24
2023-05-19T17:41:51.476Z,20.31
2023-05-19T17:44:17.955Z,20.36
2023-05-19T17:46:44.512Z,20.11
2023-05-19T17:49:12.925Z,20.22
2023-05-19T17:51:39.564Z,19.87
2023-05-19T17:54:06.671Z,19.74
2023-05-19T17:56:34.192Z,19.81
2023-05-19T17:59:00.908Z,19.67
2023-05-19T18:01:27.656Z,19.53
2023-05-19T18:03:54.637Z,19.30
2023-05-19T18:06:21.564Z,19.10
2023-05-19T18:08:50.629Z,18.77
2023-05-19T18:11:18.264Z,18.76
2023-05-19T18:13:45.000Z,18.37
2023-05-19T18:16:12.353Z,18.30
2023-05-19T18:18:41.121Z,18.01
2023-05-19T18:21:07.628Z,17.96
2023-05-19T18:23:34.099Z,17.87
2023-05-19T18:26:00.658Z,17.73
2023-05-19T18:28:27.078Z,17.88
2023-05-19T18:31:01.096Z,17.78
2023-05-19T18:33:28.711Z,17.67
2023-05-19T18:35:57.640Z,17.54
2023-05-19T18:38:24.374Z,17.75
2023-05-19T18:40:51.162Z,17.51
2023-05-19T18:43:18.277Z,17.33
2023-05-19T18:45:47.322Z,17.27
2023-05-19T18:48:15.003Z,17.21
2023-05-19T18:50:43.717Z,17.21
2023-05-19T18:53:11.819Z,17.07
2023-05-19T18:55:38.630Z,17.06
2023-05-19T18:58:06.069Z,16.88
2023-05-19T19:00:33.188Z,16.83
2023-05-19T19:03:00.101Z,16.76
2023-05-19T19:05:26.573Z,16.55
2023-05-19T19:07:53.344Z,16.47
2023-05-19T19:10:19.920Z,16.12
2023-05-19T19:12:46.448Z,16.01
2023-05-19T19:15:13.072Z,16.16
2023-05-19T19:17:42.485Z,16.08
2023-05-19T19:20:09.560Z,15.84
2023-05-19T19:22:36.296Z,16.11
2023-05-19T19:25:02.769Z,15.95
2023-05-19T19:27:31.244Z,15.84
2023-05-19T19:30:00.671Z,15.67
2023-05-19T19:32:27.172Z,15.70
2023-05-19T19:34:53.669Z,15.56
2023-05-19T19:37:20.161Z,15.51
2023-05-19T19:39:46.842Z,15.50
2023-05-19T19:42:13.438Z,15.39
2023-05-19T19:44:39.951Z,15.30
2023-05-19T19:47:06.500Z,15.23
2023-05-19T19:49:33.702Z,15.32
2023-05-19T19:52:00.216Z,15.13
2023-05-19T19:54:26.669Z,14.95
2023-05-19T19:56:53.137Z,14.82
2023-05-19T19:59:19.823Z,14.84
2023-05-19T20:01:46.348Z,14.74
2023-05-19T20:04:13.012Z,14.67
2023-05-19T20:06:39.869Z,14.63
2023-05-19T20:09:06.807Z,14.63
2023-05-19T20:11:33.291Z,14.58
2023-05-19T20:13:59.812Z,14.49
2023-05-19T20:16:26.407Z,14.45
2023-05-19T20:18:52.926Z,14.50
2023-05-19T20:21:19.444Z,14.30
2023-05-19T20:23:46.169Z,14.31
2023-05-19T20:26:13.560Z,14.29
2023-05-19T20:28:40.488Z,14.15
2023-05-19T20:31:07.361Z,14.14
2023-05-19T20:33:34.076Z,14.00
2023-05-19T20:36:00.516Z,13.86
2023-05-19T20:38:27.346Z,13.99
2023-05-19T20:40:54.428Z,13.74
2023-05-19T20:43:21.232Z,13.88
2023-05-19T20:45:47.787Z,13.84
2023-05-19T20:48:15.872Z,13.71
2023-05-19T20:50:42.540Z,13.65
2023-05-19T20:53:08.993Z,13.57
2023-05-19T20:55:36.515Z,13.51
2023-05-19T20:58:03.086Z,13.66
2023-05-19T21:00:30.554Z,13.58
2023-05-19T21:02:57.362Z,13.46
2023-05-19T21:05:23.960Z,13.36
2023-05-19T21:07:50.552Z,13.27
2023-05-19T21:10:17.867Z,13.40
2023-05-19T21:12:44.369Z,13.15
2023-05-19T21:15:11.385Z,13.13
2023-05-19T21:17:38.110Z,13.25
2023-05-19T21:20:05.253Z,13.24
2023-05-19T21:22:31.800Z,13.24
2023-05-19T21:24:58.251Z,13.16
2023-05-19T21:27:24.734Z,13.28
2023-05-19T21:29:53.022Z,13.14
2023-05-19T21:32:20.292Z,13.13
2023-05-19T21:34:46.802Z,12.90
2023-05-19T21:37:13.320Z,12.82
2023-05-19T21:39:39.748Z,13.02
2023-05-19T21:42:06.431Z,12.92
2023-05-19T21:44:32.982Z,12.94
2023-05-19T21:46:59.517Z,12.87
2023-05-19T21:49:26.025Z,12.98
2023-05-19T21:51:52.425Z,12.95
2023-05-19T21:54:18.835Z,13.07
2023-05-19T21:56:45.459Z,12.91
2023-05-19T21:59:12.063Z,12.98
2023-05-19T22:01:38.878Z,12.85
2023-05-19T22:04:05.569Z,12.81
2023-05-19T22:06:32.311Z,12.88
2023-05-19T22:09:01.104Z,12.69
2023-05-19T22:11:27.675Z,12.72
2023-05-19T22:13:56.709Z,12.73
2023-05-19T22:16:23.184Z,12.63
2023-05-19T22:18:49.697Z,12.65
2023-05-19T22:21:16.206Z,12.77
2023-05-19T22:23:43.424Z,12.59
2023-05-19T22:26:09.988Z,12.55
2023-05-19T22:28:36.420Z,12.68
2023-05-19T22:31:02.860Z,12.64
2023-05-19T22:33:29.307Z,12.57
2023-05-19T22:35:55.837Z,12.62
2023-05-19T22:38:22.278Z,12.52
2023-05-19T22:40:49.929Z,12.55
2023-05-19T22:43:16.456Z,12.45
2023-05-19T22:45:44.310Z,12.32
2023-05-19T22:48:11.372Z,12.47
2023-05-19T22:50:37.848Z,12.34
2023-05-19T22:53:04.274Z,12.25
2023-05-19T22:55:30.762Z,12.10
2023-05-19T22:57:57.332Z,12.23
2023-05-19T23:00:23.855Z,12.26
2023-05-19T23:02:50.318Z,12.05
2023-05-19T23:05:16.800Z,11.94
2023-05-19T23:07:43.300Z,12.05
2023-05-19T23:10:10.160Z,11.88
2023-05-19T23:12:36.734Z,12.01
2023-05-19T23:15:03.778Z,11.92
2023-05-19T23:17:30.261Z,11.91
2023-05-19T23:19:56.789Z,11.69
2023-05-19T23:22:23.274Z,11.95
2023-05-19T23:24:49.715Z,11.77
2023-05-19T23:27:16.146Z,11.78
2023-05-19T23:29:42.604Z,11.77
2023-05-19T23:32:09.279Z,11.89
2023-05-19T23:34:35.709Z,11.82
2023-05-19T23:37:02.186Z,11.82
2023-05-19T23:39:28.625Z,11.72
2023-05-19T23:41:55.069Z,11.47
2023-05-19T23:44:21.573Z,11.64
2023-05-19T23:46:48.068Z,11.64
2023-05-19T23:49:14.619Z,11.54
2023-05-19T23:51:41.337Z,11.54
2023-05-19T23:54:07.885Z,11.52
2023-05-19T23:56:34.386Z,11.58
2023-05-19T23:59:00.818Z,11.62
